Flight Track Log - Related Links

Times and Time Zones

All times are in EDT time to prevent confusion due to time zone crossing. See the THU202 flight status page for this flight to view local times or setup timezone preferences in your user account.

Time Position Orientation Groundspeed Altitude Reporting Facility
EDT Latitude Longitude Course Direction KTS MPH feet Rate Location/Type
Fri 10:03:11 AM 48.9000 -81.4333 352° North 140 161 5,600  Level Toronto Center
Fri 10:04:40 AM 48.9667 -81.4500 351° North 140 161 6,200 443 Climbing Toronto Center
Fri 10:05:40 AM 49.0000 -81.4500 360° North 140 161 6,700 500 Climbing Toronto Center
Fri 10:06:40 AM 49.0333 -81.4667 342° North 140 161 7,200 450 Climbing Toronto Center
Fri 10:07:00 AM 49.0294 -81.4664 352° North  Level FlightAware Approximate
Fri 10:07:40 AM 49.0833 -81.4833 348° North 140 161 7,600  Level Toronto Center
Fri 10:08:00 AM 49.0757 -81.4769 352° North  Level FlightAware Approximate
Fri 10:08:40 AM 49.1167 -81.4833 360° North 150 173 8,000  Level Toronto Center
Fri 10:09:40 AM 49.1667 -81.4833 360° North 160 184 8,400 450 Climbing Toronto Center
Fri 10:10:40 AM 49.2167 -81.5167 336° Northwest 150 173 8,900 350 Climbing Toronto Center
Fri 10:11:40 AM 49.2500 -81.5167 360° North 150 173 9,100 100 Climbing Toronto Center
Fri 10:12:40 AM 49.3000 -81.5167 360° North 160 184 9,100  Level Toronto Center
Fri 10:13:40 AM 49.3333 -81.5500 327° Northwest 160 184 9,100  Level Toronto Center
Fri 10:14:40 AM 49.3833 -81.5500 360° North 160 184 9,100  Level Toronto Center
Fri 10:15:40 AM 49.4333 -81.5500 360° North 170 196 9,100  Level Toronto Center
Fri 10:16:40 AM 49.4833 -81.5833 337° Northwest 170 196 9,100  Level Toronto Center
Fri 10:17:40 AM 49.5333 -81.5833 360° North 170 196 9,100  Level Toronto Center
Fri 10:18:40 AM 49.5667 -81.5833 360° North 170 196 9,100  Level Toronto Center
Fri 10:19:40 AM 49.6167 -81.6167 337° Northwest 170 196 9,100  Level Toronto Center
Fri 10:20:40 AM 49.6667 -81.6167 360° North 170 196 9,100  Level Toronto Center
Fri 10:21:40 AM 49.7167 -81.6333 348° North 170 196 9,100  Level Toronto Center
Fri 10:22:40 AM 49.7667 -81.6333 360° North 170 196 9,100 50 Level Toronto Center
Fri 10:23:40 AM 49.8167 -81.6500 348° North 170 196 9,200 50 Climbing Toronto Center
Fri 10:24:40 AM 49.8500 -81.6667 342° North 170 196 9,200  Level Toronto Center
Fri 10:25:40 AM 49.9000 -81.6667 360° North 170 196 9,200  Level Toronto Center
Fri 10:26:40 AM 49.9500 -81.6667 360° North 170 196 9,200  Level Toronto Center
Fri 10:27:40 AM 50.0000 -81.7000 337° Northwest 170 196 9,200  Level Toronto Center
Fri 10:28:40 AM 50.0333 -81.7000 360° North 170 196 9,200  Level Toronto Center
Fri 10:29:40 AM 50.0833 -81.7000 360° North 170 196 9,200  Level Toronto Center
Fri 10:30:40 AM 50.1333 -81.7333 337° Northwest 170 196 9,200  Level Toronto Center
Fri 10:31:40 AM 50.1833 -81.7333 360° North 170 196 9,200  Level Toronto Center
Fri 10:32:40 AM 50.2333 -81.7667 337° Northwest 180 207 9,200  Level Toronto Center
Fri 10:33:40 AM 50.2833 -81.7667 360° North 180 207 9,200  Level Toronto Center
Fri 10:34:40 AM 50.3333 -81.7667 360° North 180 207 9,200  Level Toronto Center
Fri 10:35:40 AM 50.3833 -81.8000 337° Northwest 180 207 9,200  Level Toronto Center
Fri 10:36:40 AM 50.4333 -81.8000 360° North 180 207 9,200  Level Toronto Center
Fri 10:37:40 AM 50.4833 -81.8000 360° North 180 207 9,200  Level Toronto Center
Fri 10:38:40 AM 50.5167 -81.8333 328° Northwest 180 207 9,200  Level Toronto Center
Fri 10:39:40 AM 50.5667 -81.8333 360° North 180 207 9,200  Level Toronto Center
Fri 10:40:40 AM 50.6167 -81.8333 360° North 180 207 9,200 -70 Level Toronto Center
Fri 10:41:06 AM 50.6333 -81.8000 52° Northeast 180 207 9,100 -70 Descending Winnipeg Center
Fri 10:42:06 AM 50.6667 -81.7833 18° North 180 207 9,100  Level Winnipeg Center
Fri 10:43:06 AM 50.7167 -81.8167 337° Northwest 180 207 9,100 64 Level Winnipeg Center
Fri 10:43:40 AM 50.7500 -81.8833 308° West 180 207 9,200  Climbing Toronto Center
Fri 10:44:06 AM 50.7667 -81.8333 62° Northeast 180 207 9,100  Descending Winnipeg Center
Fri 10:44:40 AM 50.8000 -81.9000 308° West 180 207 9,200  Climbing Toronto Center
Fri 10:45:06 AM 50.8167 -81.8333 68° East 180 207 9,100  Descending Winnipeg Center
Fri 10:45:40 AM 50.8500 -81.9000 308° West 180 207 9,200  Climbing Toronto Center
Fri 10:46:06 AM 50.8667 -81.8500 62° Northeast 180 207 9,100  Descending Winnipeg Center
Fri 10:46:40 AM 50.9000 -81.9167 308° West 180 207 9,200  Climbing Toronto Center
Fri 10:47:06 AM 50.9167 -81.8667 62° Northeast 180 207 9,100  Descending Winnipeg Center
Fri 10:47:40 AM 50.9500 -81.9333 308° West 180 207 9,200 39 Climbing Toronto Center
Fri 10:49:40 AM 51.0500 -81.9500 354° North 180 207 9,200  Level Toronto Center
Fri 10:50:40 AM 51.1000 -81.9667 348° North 180 207 9,200  Level Toronto Center
Fri 10:51:40 AM 51.1500 -81.9667 360° North 180 207 9,200  Level Toronto Center
Fri 10:52:40 AM 51.2000 -81.9833 348° North 180 207 9,200  Level Toronto Center
Fri 10:53:40 AM 51.2500 -82.0000 348° North 180 207 9,200  Level Toronto Center
Fri 10:54:40 AM 51.3000 -82.0000 360° North 180 207 9,200  Level Toronto Center
Fri 10:55:40 AM 51.3500 -82.0167 348° North 180 207 9,200  Level Toronto Center
Fri 10:59:00 AM 51.4139 -82.0332 351° North  Level FlightAware Approximate
Fri 11:06:00 AM 51.7371 -82.1176 351° North  Level FlightAware Approximate
Fri 11:07:00 AM 51.7833 -82.1290 351° North  Level FlightAware Approximate
Fri 11:08:00 AM 51.8296 -82.1405 351° North  Level FlightAware Approximate
Fri 11:09:00 AM 51.8758 -82.1519 351° North  Level FlightAware Approximate
Fri 11:10:00 AM 51.9221 -82.1634 351° North  Level FlightAware Approximate
Fri 11:11:00 AM 51.9683 -82.1750 351° North  Level FlightAware Approximate
Fri 11:12:00 AM 52.0145 -82.1865 351° North  Level FlightAware Approximate
Fri 11:13:00 AM 52.0608 -82.1981 351° North  Level FlightAware Approximate
Fri 11:14:00 AM 52.1070 -82.2097 351° North  Level FlightAware Approximate
Fri 11:15:00 AM 52.1532 -82.2213 351° North  Level FlightAware Approximate
Fri 11:16:00 AM 52.1995 -82.2329 351° North  Level FlightAware Approximate
Fri 11:17:00 AM 52.2457 -82.2446 351° North  Level FlightAware Approximate
Fri 11:18:00 AM 52.2919 -82.2563 351° North  Level FlightAware Approximate
Fri 11:19:00 AM 52.3381 -82.2680 351° North  Level FlightAware Approximate
Fri 11:20:00 AM 52.3844 -82.2797 351° North  Level FlightAware Approximate
Fri 11:21:00 AM 52.4306 -82.2915 351° North  Level FlightAware Approximate
Fri 11:22:00 AM 52.4768 -82.3033 351° North  Level FlightAware Approximate
Fri 11:23:00 AM 52.5230 -82.3151 351° North  Level FlightAware Approximate
Fri 11:24:00 AM 52.5692 -82.3269 351° North  Level FlightAware Approximate
Fri 11:25:00 AM 52.6155 -82.3388 351° North  Level FlightAware Approximate
Fri 11:26:00 AM 52.6617 -82.3506 351° North  Level FlightAware Approximate
Fri 11:27:00 AM 52.7079 -82.3625 351° North  Level FlightAware Approximate
Fri 11:28:00 AM 52.7541 -82.3745 351° North  Level FlightAware Approximate
Fri 11:29:00 AM 52.8004 -82.3865 351° North  Level FlightAware Approximate
Fri 11:30:00 AM 52.8466 -82.3984 351° North  Level FlightAware Approximate
Fri 11:31:00 AM 52.8928 -82.4105 351° North  Level FlightAware Approximate
Fri 11:32:00 AM 52.8982 -82.3950 145° Southeast  Level FlightAware Approximate
Fri 11:33:00 AM 52.8601 -82.3502 145° Southeast  Level FlightAware Approximate
Fri 11:34:00 AM 52.8218 -82.3055 145° Southeast  Level FlightAware Approximate
Fri 11:35:00 AM 52.7836 -82.2609 145° Southeast  Level FlightAware Approximate
Fri 11:36:00 AM 52.7454 -82.2164 145° Southeast  Level FlightAware Approximate
Fri 11:37:00 AM 52.7072 -82.1719 145° Southeast  Level FlightAware Approximate
Fri 11:38:00 AM 52.6689 -82.1275 145° Southeast  Level FlightAware Approximate
Fri 11:39:00 AM 52.6306 -82.0832 145° Southeast  Level FlightAware Approximate
Fri 11:40:00 AM 52.5923 -82.0390 145° Southeast  Level FlightAware Approximate
Fri 11:41:00 AM 52.5540 -81.9948 145° Southeast  Level FlightAware Approximate
Fri 11:42:00 AM 52.5157 -81.9507 145° Southeast  Level FlightAware Approximate
Fri 11:43:00 AM 52.4773 -81.9067 145° Southeast  Level FlightAware Approximate
Fri 11:44:00 AM 52.4390 -81.8628 145° Southeast  Level FlightAware Approximate
Fri 11:45:00 AM 52.4006 -81.8189 145° Southeast  Level FlightAware Approximate
Fri 11:46:00 AM 52.3622 -81.7752 145° Southeast  Level FlightAware Approximate
Fri 11:47:00 AM 52.3238 -81.7315 145° Southeast  Level FlightAware Approximate
Fri 11:48:00 AM 52.2854 -81.6879 145° Southeast  Level FlightAware Approximate
Fri 11:49:00 AM 52.2462 -81.6461 148° Southeast  Level FlightAware Approximate
Fri 11:50:00 AM 52.2063 -81.6062 148° Southeast  Level FlightAware Approximate
Fri 11:51:00 AM 52.1670 -81.5648 145° Southeast  Level FlightAware Approximate
Fri 11:52:00 AM 52.1286 -81.5214 145° Southeast  Level FlightAware Approximate
Fri 11:53:00 AM 52.0901 -81.4780 145° Southeast  Level FlightAware Approximate
Fri 11:54:00 AM 52.0517 -81.4347 145° Southeast  Level FlightAware Approximate
Fri 11:55:00 AM 52.0132 -81.3915 145° Southeast  Level FlightAware Approximate
Fri 11:56:00 AM 51.9747 -81.3483 145° Southeast  Level FlightAware Approximate
Fri 11:57:00 AM 51.9362 -81.3052 145° Southeast  Level FlightAware Approximate
Fri 11:58:00 AM 51.8977 -81.2622 145° Southeast  Level FlightAware Approximate
Fri 11:59:00 AM 51.8591 -81.2193 145° Southeast  Level FlightAware Approximate
Fri 12:00:00 PM 51.8205 -81.1764 145° Southeast  Level FlightAware Approximate
Fri 12:01:00 PM 51.7820 -81.1336 146° Southeast  Level FlightAware Approximate
Fri 12:02:00 PM 51.7435 -81.0906 145° Southeast  Level FlightAware Approximate
Fri 12:03:00 PM 51.7052 -81.0473 145° Southeast  Level FlightAware Approximate
Fri 12:04:00 PM 51.6668 -81.0042 145° Southeast  Level FlightAware Approximate
Fri 12:05:00 PM 51.6282 -80.9615 148° Southeast  Level FlightAware Approximate
Fri 12:06:00 PM 51.5885 -80.9218 148° Southeast  Level FlightAware Approximate
Fri 12:07:00 PM 51.5488 -80.8821 148° Southeast  Level FlightAware Approximate
Fri 12:08:00 PM 51.5090 -80.8423 148° Southeast  Level FlightAware Approximate
Fri 12:09:00 PM 51.4693 -80.8027 148° Southeast  Level FlightAware Approximate
Fri 12:10:00 PM 51.4296 -80.7629 148° Southeast  Level FlightAware Approximate
Fri 12:11:00 PM 51.3918 -80.7189 142° Southeast  Level FlightAware Approximate
Fri 12:12:00 PM 51.3549 -80.6728 142° Southeast  Level FlightAware Approximate
Fri 12:13:00 PM 51.3157 -80.6323 148° Southeast  Level FlightAware Approximate
Fri 12:14:00 PM 51.2911 -80.6078 148° Southeast  Level Estimated
Fri 12:15:00 PM 51.2911 -80.6078 148° Southeast  Level Estimated
Fri 12:16:00 PM 51.2911 -80.6078 148° Southeast  Level Estimated
Fri 12:17:00 PM 51.2911 -80.6078 148° Southeast  Level Estimated
Fri 12:18:00 PM 51.2911 -80.6078 148° Southeast  Level Estimated
Fri 12:19:00 PM 51.2911 -80.6078 148° Southeast  Level Estimated
Fri 12:20:00 PM 51.2911 -80.6078 148° Southeast  Level Estimated
Fri 12:21:00 PM 51.2911 -80.6078 148° Southeast  Level Estimated
Fri 12:22:00 PM 51.2911 -80.6078 148° Southeast  Level Estimated
Fri 12:23:00 PM 51.2911 -80.6078 148° Southeast  Level Estimated
Fri 12:24:00 PM 51.2911 -80.6078 148° Southeast  Level Estimated
Fri 12:25:00 PM 51.2911 -80.6078 148° Southeast  Level Estimated
Fri 12:26:00 PM 51.2911 -80.6078 148° Southeast  Level Estimated
Fri 12:27:00 PM 51.2911 -80.6078 148° Southeast  Level Estimated
Fri 12:28:00 PM 51.2911 -80.6078 148° Southeast  Level Estimated
Fri 12:29:00 PM 51.2911 -80.6078 148° Southeast  Level Estimated

Login

Don't have an account? Register now (free) for customized features, flight alerts, and more!